createdAt,value
2022-10-05T00:00:57.262Z,10.88
2022-10-05T00:03:25.534Z,11.17
2022-10-05T00:05:52.821Z,11.27
2022-10-05T00:08:24.150Z,11.33
2022-10-05T00:10:52.080Z,11.43
2022-10-05T00:13:24.098Z,11.44
2022-10-05T00:15:52.194Z,11.40
2022-10-05T00:18:21.961Z,11.29
2022-10-05T00:20:49.562Z,11.24
2022-10-05T00:23:21.463Z,11.21
2022-10-05T00:25:48.942Z,11.20
2022-10-05T00:28:26.959Z,11.08
2022-10-05T00:30:55.359Z,11.11
2022-10-05T00:33:22.931Z,11.15
2022-10-05T00:35:50.308Z,11.29
2022-10-05T00:38:17.812Z,11.30
2022-10-05T00:40:45.168Z,11.28
2022-10-05T00:43:38.170Z,11.19
2022-10-05T00:46:07.976Z,11.18
2022-10-05T00:48:45.854Z,10.92
2022-10-05T00:51:24.349Z,11.11
2022-10-05T00:54:18.386Z,11.00
2022-10-05T00:56:46.313Z,10.87
2022-10-05T00:59:13.883Z,11.09
2022-10-05T01:01:45.217Z,11.01
2022-10-05T01:04:16.105Z,10.90
2022-10-05T01:06:43.838Z,10.89
2022-10-05T01:09:17.458Z,11.02
2022-10-05T01:12:00.637Z,10.97
2022-10-05T01:14:30.464Z,10.84
2022-10-05T01:17:03.930Z,10.92
2022-10-05T01:19:43.593Z,11.01
2022-10-05T01:22:10.963Z,10.97
2022-10-05T01:24:41.180Z,10.73
2022-10-05T01:27:14.113Z,10.84
2022-10-05T01:29:57.021Z,10.77
2022-10-05T01:32:36.662Z,10.94
2022-10-05T01:35:19.118Z,10.93
2022-10-05T01:37:49.598Z,10.90
2022-10-05T01:40:23.123Z,10.97
2022-10-05T01:43:02.806Z,10.84
2022-10-05T01:45:36.946Z,11.01
2022-10-05T01:48:08.158Z,10.72
2022-10-05T01:50:57.135Z,10.77
2022-10-05T01:53:43.642Z,10.85
2022-10-05T01:56:26.283Z,10.85
2022-10-05T01:58:53.898Z,10.78
2022-10-05T02:01:24.080Z,10.78
2022-10-05T02:03:57.303Z,10.93
2022-10-05T02:06:25.240Z,10.84
2022-10-05T02:09:02.433Z,10.59
2022-10-05T02:11:30.201Z,10.45
2022-10-05T02:14:02.605Z,10.72
2022-10-05T02:16:44.730Z,10.64
2022-10-05T02:19:21.344Z,10.54
2022-10-05T02:21:50.728Z,10.68
2022-10-05T02:24:19.882Z,10.79
2022-10-05T02:26:47.509Z,10.88
2022-10-05T02:29:15.440Z,10.76
2022-10-05T02:31:46.181Z,10.71
2022-10-05T02:34:32.507Z,10.75
2022-10-05T02:37:18.421Z,10.76
2022-10-05T02:39:47.093Z,10.71
2022-10-05T02:42:26.272Z,10.70
2022-10-05T02:45:00.752Z,10.78
2022-10-05T02:47:33.718Z,10.74
2022-10-05T02:50:10.043Z,10.74
2022-10-05T02:52:40.371Z,10.60
2022-10-05T02:55:18.741Z,10.58
2022-10-05T02:57:53.330Z,10.53
2022-10-05T03:00:24.363Z,10.38
2022-10-05T03:03:01.283Z,10.32
2022-10-05T03:05:33.143Z,10.24
2022-10-05T03:08:03.259Z,10.26
2022-10-05T03:10:36.053Z,10.23
2022-10-05T03:13:13.497Z,10.41
2022-10-05T03:15:51.160Z,10.47
2022-10-05T03:18:41.313Z,10.57
2022-10-05T03:21:12.229Z,10.54
2022-10-05T03:23:47.579Z,10.59
2022-10-05T03:26:20.894Z,10.58
2022-10-05T03:28:58.333Z,10.47
2022-10-05T03:31:29.078Z,10.61
2022-10-05T03:33:58.525Z,10.35
2022-10-05T03:36:38.024Z,10.19
2022-10-05T03:39:09.249Z,10.31
2022-10-05T03:41:40.316Z,10.57
2022-10-05T03:44:26.896Z,10.32
2022-10-05T03:46:54.430Z,10.22
2022-10-05T03:49:24.652Z,10.00
2022-10-05T03:51:59.604Z,10.18
2022-10-05T03:54:31.403Z,10.40
2022-10-05T03:57:06.615Z,10.21
2022-10-05T03:59:35.795Z,10.14
2022-10-05T04:02:12.786Z,10.05
2022-10-05T04:04:58.986Z,9.91
2022-10-05T04:07:42.873Z,10.07
2022-10-05T04:10:13.586Z,10.08
2022-10-05T04:12:41.933Z,10.25
2022-10-05T04:15:18.588Z,10.26
2022-10-05T04:17:47.953Z,10.37
2022-10-05T04:20:17.858Z,10.52
2022-10-05T04:22:58.232Z,10.47
2022-10-05T04:25:35.006Z,10.52
2022-10-05T04:28:05.610Z,10.85
2022-10-05T04:30:34.095Z,11.02
2022-10-05T04:33:02.652Z,10.97
2022-10-05T04:35:41.051Z,11.20
2022-10-05T04:38:11.963Z,11.36
2022-10-05T04:40:52.686Z,11.47
2022-10-05T04:43:32.560Z,11.53
2022-10-05T04:46:19.076Z,11.60
2022-10-05T04:49:06.359Z,11.62
2022-10-05T04:51:38.566Z,11.58
2022-10-05T04:54:15.511Z,11.75
2022-10-05T04:56:47.750Z,11.67
2022-10-05T04:59:34.242Z,11.76
2022-10-05T05:02:23.665Z,11.96
2022-10-05T05:05:06.185Z,12.05
2022-10-05T16:37:59.506Z,15.34
2022-10-05T16:40:45.892Z,15.16
2022-10-05T16:43:32.604Z,14.79
2022-10-05T16:46:09.929Z,14.89
2022-10-05T16:48:37.584Z,14.83
2022-10-05T16:51:17.154Z,14.63
2022-10-05T16:53:46.021Z,14.85
2022-10-05T16:56:20.328Z,14.76
2022-10-05T16:58:47.691Z,14.97
2022-10-05T17:01:28.379Z,14.93
2022-10-05T17:03:56.277Z,14.88
2022-10-05T17:06:30.396Z,14.82
2022-10-05T17:09:16.762Z,14.86
2022-10-05T17:12:00.835Z,14.71
2022-10-05T17:14:40.589Z,14.70
2022-10-05T17:17:27.390Z,14.60
2022-10-05T17:20:04.202Z,14.65
2022-10-05T17:22:34.723Z,14.55
2022-10-05T17:25:09.151Z,14.79
2022-10-05T17:27:50.971Z,14.67
2022-10-05T17:30:18.642Z,14.84
2022-10-05T17:33:00.266Z,14.65
2022-10-05T17:35:54.337Z,14.86
2022-10-05T17:38:22.813Z,14.62
2022-10-05T17:41:06.490Z,14.60
2022-10-05T17:43:33.914Z,14.74
2022-10-05T17:46:02.105Z,14.84
2022-10-05T17:48:43.180Z,14.69
2022-10-05T17:51:36.575Z,14.72
2022-10-05T17:54:42.712Z,14.75
2022-10-05T17:57:10.139Z,14.63
2022-10-05T17:59:37.662Z,14.55
2022-10-05T18:02:21.597Z,14.64
2022-10-05T18:05:07.454Z,14.58
2022-10-05T18:07:37.107Z,14.48
2022-10-05T18:10:15.446Z,14.45
2022-10-05T18:13:11.217Z,14.46
2022-10-05T18:15:46.237Z,14.66
2022-10-05T18:18:32.512Z,14.55
2022-10-05T18:21:15.243Z,14.46
2022-10-05T18:23:44.757Z,14.72
2022-10-05T18:26:20.540Z,14.89
2022-10-05T18:28:51.835Z,14.69
2022-10-05T18:31:33.237Z,14.47
2022-10-05T18:34:10.054Z,14.83
2022-10-05T18:36:56.597Z,14.63
2022-10-05T18:39:32.694Z,14.43
2022-10-05T18:42:14.111Z,14.47
2022-10-05T18:44:46.393Z,14.30
2022-10-05T18:47:32.198Z,14.60
2022-10-05T18:50:02.821Z,14.65
2022-10-05T18:52:49.645Z,14.67
2022-10-05T18:55:29.120Z,14.57
2022-10-05T18:58:15.334Z,14.47
2022-10-05T19:01:01.610Z,14.23
2022-10-05T19:03:35.264Z,14.34
2022-10-05T19:06:13.247Z,14.24
2022-10-05T19:08:43.704Z,14.29
2022-10-05T19:11:19.264Z,14.27
2022-10-05T19:14:01.521Z,14.51
2022-10-05T19:16:35.037Z,14.32
2022-10-05T19:19:07.644Z,14.23
2022-10-05T19:21:47.554Z,14.55
2022-10-05T19:24:20.391Z,14.42
2022-10-05T19:27:00.195Z,14.29
2022-10-05T19:29:36.462Z,14.55
2022-10-05T19:32:22.732Z,14.18
2022-10-05T19:34:57.000Z,14.19
2022-10-05T19:37:33.830Z,14.01
2022-10-05T19:40:02.574Z,14.05
2022-10-05T19:42:50.947Z,14.12
2022-10-05T19:45:21.364Z,14.12
2022-10-05T19:47:48.773Z,14.13
2022-10-05T19:50:34.946Z,13.93
2022-10-05T19:53:10.455Z,14.25
2022-10-05T19:55:41.806Z,13.77
2022-10-05T19:58:36.629Z,13.98
2022-10-05T20:01:06.858Z,14.09
2022-10-05T20:03:35.515Z,13.90
2022-10-05T20:06:04.017Z,13.83
2022-10-05T20:08:41.967Z,13.87
2022-10-05T20:11:11.792Z,13.91
2022-10-05T20:13:45.531Z,14.02
2022-10-05T20:16:31.953Z,13.83
2022-10-05T20:19:19.437Z,14.00
2022-10-05T20:21:47.970Z,14.05
2022-10-05T20:24:16.367Z,13.80
2022-10-05T20:27:06.962Z,13.60
2022-10-05T20:29:38.114Z,13.81
2022-10-05T20:32:08.870Z,13.85
2022-10-05T20:34:36.915Z,13.92
2022-10-05T20:37:04.360Z,13.87
2022-10-05T20:39:31.986Z,13.94
2022-10-05T20:41:59.642Z,14.03
2022-10-05T20:44:26.971Z,13.69
2022-10-05T20:46:57.562Z,13.62
2022-10-05T20:49:26.592Z,13.59
2022-10-05T20:51:55.867Z,13.59
2022-10-05T20:54:23.543Z,13.48
2022-10-05T20:56:51.848Z,13.55
2022-10-05T20:59:19.268Z,13.60
2022-10-05T21:01:49.488Z,13.40
2022-10-05T21:04:17.315Z,13.59
2022-10-05T21:06:45.072Z,13.55
2022-10-05T21:09:15.040Z,13.39
2022-10-05T21:11:42.686Z,13.63
2022-10-05T21:14:10.464Z,13.80
2022-10-05T21:16:38.380Z,13.61
2022-10-05T21:19:14.786Z,13.73
2022-10-05T21:21:42.769Z,13.31
2022-10-05T21:24:11.819Z,13.59
2022-10-05T21:26:44.313Z,13.37
2022-10-05T21:29:12.907Z,13.51
2022-10-05T21:31:40.733Z,13.17
2022-10-05T21:34:08.283Z,13.53
2022-10-05T21:36:36.048Z,13.42
2022-10-05T21:39:03.441Z,13.61
2022-10-05T21:41:31.097Z,13.53
2022-10-05T21:43:58.673Z,13.42
2022-10-05T21:46:26.748Z,13.70
2022-10-05T21:48:54.664Z,13.49
2022-10-05T21:51:23.508Z,13.38
2022-10-05T21:53:52.236Z,13.61
2022-10-05T21:56:20.194Z,13.42
2022-10-05T21:58:48.056Z,13.46
2022-10-05T22:01:20.166Z,13.56
2022-10-05T22:03:49.728Z,13.49
2022-10-05T22:06:17.383Z,13.38
2022-10-05T22:08:44.767Z,13.31
2022-10-05T22:11:13.147Z,13.42
2022-10-05T22:13:42.077Z,13.53
2022-10-05T22:16:10.813Z,13.49
2022-10-05T22:18:38.347Z,13.40
2022-10-05T22:21:06.665Z,13.28
2022-10-05T22:23:35.875Z,13.38
2022-10-05T22:26:03.262Z,13.50
2022-10-05T22:28:33.313Z,13.37
2022-10-05T22:31:02.062Z,13.27
2022-10-05T22:33:29.798Z,13.50
2022-10-05T22:35:58.613Z,13.56
2022-10-05T22:38:26.451Z,13.76
2022-10-05T22:40:54.046Z,13.50
2022-10-05T22:43:21.515Z,13.41
2022-10-05T22:45:49.704Z,13.41
2022-10-05T22:48:17.403Z,13.39
2022-10-05T22:50:46.109Z,13.46
2022-10-05T22:53:15.561Z,13.14
2022-10-05T22:55:42.911Z,13.32
2022-10-05T22:58:10.342Z,13.40
2022-10-05T23:00:57.601Z,13.43
2022-10-05T23:03:25.551Z,13.38
2022-10-05T23:05:56.563Z,13.46
2022-10-05T23:08:28.363Z,13.43
2022-10-05T23:11:04.929Z,13.67
2022-10-05T23:13:33.647Z,13.56
2022-10-05T23:16:08.436Z,13.33
2022-10-05T23:18:36.008Z,13.25
2022-10-05T23:21:03.665Z,13.19
2022-10-05T23:23:31.195Z,13.48
2022-10-05T23:26:01.641Z,13.40
2022-10-05T23:28:29.485Z,13.19
2022-10-05T23:31:04.604Z,13.22
2022-10-05T23:33:32.862Z,13.20
2022-10-05T23:36:04.618Z,13.04
2022-10-05T23:38:32.485Z,13.23
2022-10-05T23:41:00.198Z,13.12
2022-10-05T23:43:27.705Z,13.00
2022-10-05T23:45:56.483Z,13.07
2022-10-05T23:48:25.037Z,13.32
2022-10-05T23:50:53.400Z,13.09
2022-10-05T23:53:20.796Z,13.02
2022-10-05T23:55:51.496Z,13.20
2022-10-05T23:58:19.350Z,13.29
